createdAt,value
2022-11-13T00:02:29.947Z,28.60
2022-11-13T00:05:16.048Z,23.30
2022-11-13T00:08:02.091Z,25.83
2022-11-13T00:10:47.898Z,22.47
2022-11-13T00:13:34.677Z,24.10
2022-11-13T00:16:21.400Z,27.90
2022-11-13T00:19:07.192Z,25.70
2022-11-13T00:21:54.887Z,25.67
2022-11-13T00:24:40.833Z,26.80
2022-11-13T00:27:26.902Z,28.40
2022-11-13T00:30:18.887Z,24.83
2022-11-13T00:33:05.459Z,26.30
2022-11-13T00:35:51.235Z,27.70
2022-11-13T00:38:37.118Z,27.63
2022-11-13T00:41:23.956Z,21.30
2022-11-13T00:44:10.117Z,22.87
2022-11-13T00:46:56.215Z,22.03
2022-11-13T00:49:41.739Z,23.43
2022-11-13T00:52:27.665Z,26.03
2022-11-13T00:55:13.809Z,26.00
2022-11-13T00:57:59.645Z,25.37
2022-11-13T01:00:47.120Z,25.93
2022-11-13T01:03:33.396Z,23.33
2022-11-13T01:06:23.577Z,23.17
2022-11-13T01:09:09.440Z,24.70
2022-11-13T01:11:55.616Z,22.80
2022-11-13T01:14:41.741Z,22.87
2022-11-13T01:17:27.861Z,23.53
2022-11-13T01:20:14.285Z,23.47
2022-11-13T01:22:59.936Z,22.73
2022-11-13T01:25:46.360Z,22.77
2022-11-13T01:28:32.395Z,22.57
2022-11-13T01:31:21.162Z,22.20
2022-11-13T01:34:07.087Z,21.40
2022-11-13T01:36:52.873Z,21.80
2022-11-13T01:39:38.679Z,21.53
2022-11-13T01:42:24.735Z,20.57
2022-11-13T01:45:47.728Z,27.80
2022-11-13T01:48:38.835Z,21.10
2022-11-13T01:51:33.876Z,21.70
2022-11-13T01:54:27.521Z,21.97
2022-11-13T01:57:14.646Z,23.00
2022-11-13T02:00:08.580Z,22.57
2022-11-13T02:02:54.607Z,20.83
2022-11-13T02:05:40.601Z,22.53
2022-11-13T02:08:26.851Z,20.33
2022-11-13T02:11:13.303Z,19.43
2022-11-13T02:14:00.485Z,20.60
2022-11-13T02:16:49.216Z,21.87
2022-11-13T02:19:38.225Z,21.07
2022-11-13T02:22:33.924Z,22.23
2022-11-13T02:25:20.525Z,22.03
2022-11-13T02:28:06.411Z,19.43
2022-11-13T02:30:52.297Z,25.77
2022-11-13T02:33:38.109Z,22.10
2022-11-13T02:36:25.461Z,19.50
2022-11-13T02:39:13.943Z,20.43
2022-11-13T02:42:00.180Z,18.77
2022-11-13T02:44:45.917Z,20.03
2022-11-13T02:47:32.334Z,20.23
2022-11-13T02:50:18.662Z,20.17
2022-11-13T02:53:05.190Z,20.17
2022-11-13T02:55:51.149Z,24.50
2022-11-13T02:58:37.045Z,23.10
2022-11-13T03:01:22.983Z,21.63
2022-11-13T03:04:08.372Z,24.30
2022-11-13T03:06:54.101Z,23.23
2022-11-13T03:09:42.010Z,22.00
2022-11-13T03:12:28.068Z,23.60
2022-11-13T03:15:14.249Z,21.80
2022-11-13T03:18:04.175Z,20.93
2022-11-13T03:20:54.026Z,17.83
2022-11-13T03:23:41.267Z,19.10
2022-11-13T03:26:30.193Z,22.00
2022-11-13T03:29:16.161Z,22.63
2022-11-13T03:32:03.368Z,23.63
2022-11-13T03:34:49.145Z,24.17
2022-11-13T03:37:35.218Z,27.90
2022-11-13T03:40:21.513Z,26.13
2022-11-13T03:43:07.530Z,23.10
2022-11-13T03:45:53.800Z,22.90
2022-11-13T03:48:40.030Z,24.50
2022-11-13T03:51:26.070Z,25.17
2022-11-13T03:54:11.864Z,24.07
2022-11-13T03:56:57.708Z,24.10
2022-11-13T03:59:43.809Z,24.10
2022-11-13T04:02:29.963Z,23.57
2022-11-13T04:05:21.508Z,22.40
2022-11-13T04:08:08.668Z,24.07
2022-11-13T04:10:54.457Z,20.13
2022-11-13T04:13:40.542Z,20.47
2022-11-13T04:16:26.348Z,21.37
2022-11-13T04:19:12.173Z,20.20
2022-11-13T04:21:58.356Z,19.67
2022-11-13T04:24:44.132Z,17.40
2022-11-13T04:27:30.084Z,17.07
2022-11-13T04:30:27.403Z,18.83
2022-11-13T04:33:13.834Z,18.30
2022-11-13T04:35:59.476Z,18.20
2022-11-13T04:38:45.550Z,20.90
2022-11-13T04:41:54.126Z,18.30
2022-11-13T04:44:41.274Z,15.47
2022-11-13T04:47:26.930Z,15.57
2022-11-13T04:50:12.953Z,16.50
2022-11-13T04:52:59.134Z,15.47
2022-11-13T04:55:45.065Z,16.17
2022-11-13T04:58:31.098Z,12.87
2022-11-13T05:01:17.079Z,13.90
2022-11-13T05:04:02.894Z,13.03
2022-11-13T05:06:48.647Z,12.53
2022-11-13T05:09:34.407Z,13.00
2022-11-13T05:12:20.290Z,13.50
2022-11-13T05:15:06.347Z,12.30
2022-11-13T05:17:52.217Z,12.50
2022-11-13T05:20:37.958Z,12.37
2022-11-13T05:23:23.485Z,11.60
2022-11-13T05:26:11.243Z,11.30
2022-11-13T05:28:58.472Z,11.03
2022-11-13T05:31:44.113Z,11.57
2022-11-13T05:34:30.173Z,9.50
2022-11-13T05:37:16.100Z,10.43
2022-11-13T05:40:01.539Z,10.97
2022-11-13T05:42:47.283Z,9.73
2022-11-13T05:45:32.652Z,8.70
2022-11-13T05:48:18.371Z,9.30
2022-11-13T05:51:06.148Z,9.30
2022-11-13T05:53:52.872Z,10.87
2022-11-13T05:56:38.880Z,12.53
2022-11-13T05:59:24.474Z,10.80
2022-11-13T06:02:10.487Z,11.30
2022-11-13T06:04:56.712Z,11.77
2022-11-13T06:07:42.837Z,10.07
2022-11-13T06:10:28.546Z,10.10
2022-11-13T06:13:14.219Z,11.43
2022-11-13T06:16:08.295Z,13.23
2022-11-13T06:18:58.742Z,12.07
2022-11-13T06:21:44.215Z,11.40
2022-11-13T06:24:30.139Z,11.50
2022-11-13T06:27:15.824Z,11.13
2022-11-13T06:30:01.546Z,14.30
2022-11-13T06:32:53.363Z,13.17
2022-11-13T06:35:39.469Z,12.63
2022-11-13T06:38:25.416Z,13.40
2022-11-13T06:41:14.528Z,14.30
2022-11-13T06:44:03.009Z,15.23
2022-11-13T06:46:49.454Z,16.53
2022-11-13T06:49:35.367Z,13.93
2022-11-13T06:52:21.341Z,14.83
2022-11-13T06:55:07.258Z,16.00
2022-11-13T06:57:54.485Z,16.23
2022-11-13T07:00:41.698Z,14.60
2022-11-13T07:03:27.484Z,14.13
2022-11-13T07:06:23.939Z,14.97
2022-11-13T07:09:09.960Z,16.13
2022-11-13T07:11:55.621Z,14.53
2022-11-13T07:14:41.448Z,19.50
2022-11-13T07:17:28.737Z,18.13
2022-11-13T07:20:14.358Z,14.73
2022-11-13T07:23:02.280Z,16.63
2022-11-13T07:25:47.972Z,20.33
2022-11-13T07:28:33.610Z,17.57
2022-11-13T07:31:20.767Z,16.47
2022-11-13T07:34:06.508Z,18.17
2022-11-13T07:36:52.325Z,15.43
2022-11-13T07:39:38.193Z,16.03
2022-11-13T07:42:24.146Z,14.90
2022-11-13T07:45:10.475Z,15.27
2022-11-13T07:47:59.922Z,21.67
2022-11-13T07:50:47.231Z,18.30
2022-11-13T07:53:33.241Z,20.63
2022-11-13T07:56:23.027Z,19.50
2022-11-13T07:59:08.953Z,19.03
2022-11-13T08:01:54.915Z,17.57
2022-11-13T08:04:41.013Z,15.80
2022-11-13T08:07:26.661Z,16.37
2022-11-13T08:10:12.245Z,14.97
2022-11-13T08:13:06.616Z,13.77
2022-11-13T08:15:52.480Z,15.10
2022-11-13T08:18:38.594Z,15.53
2022-11-13T08:21:27.711Z,17.53
2022-11-13T08:24:13.144Z,15.93
2022-11-13T08:26:59.177Z,18.47
2022-11-13T08:29:45.451Z,22.77
2022-11-13T08:32:31.511Z,17.43
2022-11-13T08:35:19.671Z,16.73
2022-11-13T08:38:07.998Z,16.20
2022-11-13T08:41:03.265Z,16.63
2022-11-13T08:43:52.935Z,16.53
2022-11-13T08:46:38.712Z,16.00
2022-11-13T08:49:25.033Z,14.80
2022-11-13T08:52:10.933Z,17.00
2022-11-13T08:54:56.782Z,14.90
2022-11-13T08:57:42.444Z,12.70
2022-11-13T09:00:30.294Z,13.83
2022-11-13T09:03:16.335Z,13.40
2022-11-13T09:06:02.091Z,13.17
2022-11-13T09:08:48.016Z,12.40
2022-11-13T09:11:34.450Z,12.60
2022-11-13T09:14:20.204Z,12.00
2022-11-13T09:17:06.244Z,11.67
2022-11-13T09:19:51.950Z,10.47
2022-11-13T09:22:38.000Z,9.13
2022-11-13T09:25:24.343Z,9.93
2022-11-13T09:28:11.569Z,9.70
2022-11-13T09:30:58.016Z,8.67
2022-11-13T09:33:43.992Z,9.60
2022-11-13T09:36:29.877Z,7.37
2022-11-13T09:39:16.831Z,8.37
2022-11-13T09:42:18.702Z,6.83
2022-11-13T09:45:13.539Z,6.23
2022-11-13T09:48:12.422Z,6.13
2022-11-13T09:51:02.072Z,4.97
2022-11-13T09:53:48.449Z,6.10
2022-11-13T09:56:42.609Z,6.10
2022-11-13T09:59:28.485Z,5.30
2022-11-13T10:02:14.447Z,5.20
2022-11-13T10:05:41.640Z,6.23
2022-11-13T10:08:41.918Z,4.83
2022-11-13T10:11:28.025Z,5.17
2022-11-13T10:14:20.584Z,4.73
2022-11-13T10:17:22.103Z,4.77
2022-11-13T10:20:37.099Z,4.97
2022-11-13T10:23:28.315Z,4.93
2022-11-13T10:26:17.236Z,3.63
2022-11-13T10:29:13.236Z,4.23
2022-11-13T10:31:59.529Z,4.37
2022-11-13T10:34:52.061Z,4.43
2022-11-13T10:38:03.357Z,3.40
2022-11-13T10:40:53.742Z,3.47
2022-11-13T10:43:55.276Z,3.60
2022-11-13T10:46:41.066Z,3.93
2022-11-13T10:49:30.629Z,3.20
2022-11-13T10:52:25.151Z,3.10
2022-11-13T10:55:40.680Z,3.47
2022-11-13T10:58:26.770Z,3.87
2022-11-13T11:01:26.198Z,3.17
2022-11-13T11:04:14.708Z,3.63
2022-11-13T11:07:20.075Z,3.67
2022-11-13T11:10:20.781Z,3.27
2022-11-13T11:13:11.303Z,3.73
2022-11-13T11:16:02.244Z,2.90
2022-11-13T11:19:01.415Z,3.07
2022-11-13T11:21:49.980Z,3.10
2022-11-13T11:24:52.343Z,3.37
2022-11-13T11:27:50.492Z,2.97
2022-11-13T11:30:47.383Z,3.07
2022-11-13T11:33:53.239Z,3.00
2022-11-13T11:37:04.295Z,2.97
2022-11-13T11:39:49.985Z,2.93
2022-11-13T11:42:55.276Z,2.50
2022-11-13T11:45:46.507Z,2.40
2022-11-13T11:48:33.222Z,2.40
2022-11-13T11:51:25.388Z,2.27
2022-11-13T11:54:28.969Z,2.00
2022-11-13T11:57:37.876Z,2.50
2022-11-13T12:00:24.078Z,1.93
2022-11-13T12:03:24.959Z,2.00
2022-11-13T12:06:27.927Z,1.77
2022-11-13T12:09:27.815Z,2.00
2022-11-13T12:12:31.981Z,2.30
2022-11-13T12:15:35.242Z,1.77
2022-11-13T12:18:36.751Z,2.13
2022-11-13T12:21:36.654Z,2.03
2022-11-13T12:24:52.472Z,1.93
2022-11-13T12:27:38.519Z,2.40
2022-11-13T12:30:36.355Z,2.43
2022-11-13T12:33:25.221Z,2.00
2022-11-13T12:36:12.971Z,2.07
2022-11-13T12:39:19.538Z,2.10
2022-11-13T12:42:40.102Z,2.20
2022-11-13T12:45:37.841Z,2.30
2022-11-13T12:48:33.815Z,2.30
2022-11-13T12:51:20.939Z,2.50
2022-11-13T12:54:06.602Z,2.63
2022-11-13T12:56:52.442Z,2.80
2022-11-13T12:59:44.596Z,3.17
2022-11-13T13:02:53.798Z,2.80
2022-11-13T13:06:11.076Z,2.20
2022-11-13T13:09:35.796Z,2.10
2022-11-13T13:12:21.809Z,2.20
2022-11-13T13:15:26.370Z,1.80
2022-11-13T13:18:16.558Z,2.60
2022-11-13T13:21:09.854Z,2.40
2022-11-13T13:23:56.746Z,2.53
2022-11-13T13:26:46.913Z,2.30
2022-11-13T13:29:33.822Z,2.97
2022-11-13T13:32:54.058Z,2.67
2022-11-13T13:36:06.413Z,2.40
2022-11-13T13:39:08.650Z,2.67
2022-11-13T13:42:30.646Z,2.40
2022-11-13T13:45:20.779Z,3.67
2022-11-13T13:48:12.086Z,5.27
2022-11-13T13:51:00.331Z,5.37
2022-11-13T13:53:47.017Z,5.63
2022-11-13T13:56:35.143Z,6.63
2022-11-13T13:59:28.130Z,6.20
2022-11-13T14:02:21.268Z,7.07
2022-11-13T14:05:27.231Z,7.73
2022-11-13T14:08:20.936Z,7.20
2022-11-13T14:11:21.350Z,8.53
2022-11-13T14:14:15.983Z,8.43
2022-11-13T14:17:03.727Z,8.30
2022-11-13T14:19:54.055Z,8.87
2022-11-13T14:22:40.871Z,9.50
2022-11-13T14:25:28.929Z,11.07
2022-11-13T14:28:20.343Z,10.00
2022-11-13T14:31:08.482Z,10.23
2022-11-13T14:33:54.447Z,10.67
2022-11-13T14:36:42.057Z,10.83
2022-11-13T14:39:32.716Z,12.90
2022-11-13T14:42:37.392Z,14.23
2022-11-13T14:45:25.986Z,14.53
2022-11-13T14:48:21.430Z,15.53
2022-11-13T14:51:29.826Z,14.30
2022-11-13T14:55:00.080Z,15.27
2022-11-13T14:57:48.678Z,15.43
2022-11-13T15:00:36.753Z,16.50
2022-11-13T15:03:22.748Z,17.27
2022-11-13T15:06:18.004Z,17.70
2022-11-13T15:09:05.725Z,19.83
2022-11-13T15:11:51.834Z,19.77
2022-11-13T15:14:39.616Z,18.07
2022-11-13T15:17:25.859Z,19.03
2022-11-13T15:20:22.280Z,20.33
2022-11-13T15:23:11.989Z,20.30
2022-11-13T15:25:57.593Z,20.97
2022-11-13T15:28:43.435Z,25.77
2022-11-13T15:31:32.780Z,28.00
2022-11-13T15:34:19.008Z,24.60
2022-11-13T15:37:17.102Z,24.53
2022-11-13T15:40:03.620Z,24.67
2022-11-13T15:42:49.519Z,27.00
2022-11-13T15:45:38.676Z,25.57
2022-11-13T15:48:27.410Z,25.43
2022-11-13T15:51:37.344Z,29.93
2022-11-13T15:54:31.450Z,26.37
2022-11-13T15:57:21.631Z,27.83
2022-11-13T16:00:14.439Z,31.80
2022-11-13T16:03:00.496Z,30.70
2022-11-13T16:05:46.398Z,31.67
2022-11-13T16:08:32.308Z,32.80
2022-11-13T16:11:20.176Z,29.27
2022-11-13T16:14:05.925Z,35.83
2022-11-13T16:16:53.159Z,35.93
2022-11-13T16:19:41.124Z,36.13
2022-11-13T16:22:27.411Z,36.47
2022-11-13T16:25:18.687Z,32.10
2022-11-13T16:28:06.426Z,36.37
2022-11-13T16:30:52.713Z,35.67
2022-11-13T16:33:38.780Z,37.30
2022-11-13T16:36:26.196Z,32.60
2022-11-13T16:39:16.143Z,36.17
2022-11-13T16:42:02.233Z,34.47
2022-11-13T16:44:47.984Z,37.80
2022-11-13T16:47:34.348Z,33.43
2022-11-13T16:50:24.131Z,36.90
2022-11-13T16:53:10.741Z,33.90
2022-11-13T16:55:56.969Z,31.90
2022-11-13T16:58:43.738Z,30.47
2022-11-13T17:01:29.694Z,25.73
2022-11-13T17:04:16.056Z,28.63
2022-11-13T17:07:02.425Z,30.30
2022-11-13T17:09:58.932Z,31.20
2022-11-13T17:12:51.850Z,32.67
2022-11-13T17:15:38.224Z,27.20
2022-11-13T17:18:24.403Z,29.90
2022-11-13T17:21:10.621Z,32.27
2022-11-13T17:24:01.235Z,31.73
2022-11-13T17:26:46.726Z,32.63
2022-11-13T17:29:33.644Z,34.10
2022-11-13T17:32:19.316Z,34.40
2022-11-13T17:35:06.162Z,33.83
2022-11-13T17:37:52.401Z,33.17
2022-11-13T17:40:38.739Z,32.53
2022-11-13T17:43:24.666Z,30.23
2022-11-13T17:46:14.219Z,33.90
2022-11-13T17:49:00.204Z,35.33
2022-11-13T17:51:46.606Z,32.13
2022-11-13T17:54:32.873Z,37.10
2022-11-13T17:57:22.818Z,36.67
2022-11-13T18:00:13.338Z,39.47
2022-11-13T18:02:59.302Z,35.80
2022-11-13T18:05:52.697Z,35.63
2022-11-13T18:08:39.575Z,35.70
2022-11-13T18:11:28.130Z,35.87
2022-11-13T18:14:14.456Z,39.70
2022-11-13T18:17:00.324Z,41.27
2022-11-13T18:19:46.878Z,40.17
2022-11-13T18:22:32.825Z,40.80
2022-11-13T18:25:18.989Z,40.17
2022-11-13T18:28:05.234Z,42.17
2022-11-13T18:30:56.280Z,38.67
2022-11-13T18:33:43.310Z,42.53
2022-11-13T18:36:31.608Z,33.57
2022-11-13T18:39:17.569Z,29.87
2022-11-13T18:42:03.705Z,36.70
2022-11-13T18:44:49.361Z,40.47
2022-11-13T18:47:35.198Z,41.37
2022-11-13T18:50:22.166Z,27.40
2022-11-13T18:53:07.703Z,44.93
2022-11-13T18:55:53.191Z,43.13
2022-11-13T18:58:40.880Z,45.63
2022-11-13T19:01:29.131Z,36.87
2022-11-13T19:04:22.666Z,43.37
2022-11-13T19:07:12.033Z,44.10
2022-11-13T19:09:58.539Z,51.20
2022-11-13T19:12:44.599Z,43.57
2022-11-13T19:15:30.948Z,29.67
2022-11-13T19:18:16.966Z,43.57
2022-11-13T19:21:22.902Z,40.53
2022-11-13T19:24:09.410Z,42.77
2022-11-13T19:26:55.730Z,41.67
2022-11-13T19:29:41.554Z,41.50
2022-11-13T19:32:27.985Z,37.27
2022-11-13T19:35:14.333Z,42.60
2022-11-13T19:38:01.846Z,42.50
2022-11-13T19:40:49.942Z,42.83
2022-11-13T19:43:37.673Z,42.27
2022-11-13T19:46:24.184Z,41.50
2022-11-13T19:49:10.268Z,40.87
2022-11-13T19:51:56.633Z,51.13
2022-11-13T19:54:42.804Z,34.47
2022-11-13T19:57:28.983Z,38.90
2022-11-13T20:00:15.461Z,37.40
2022-11-13T20:03:05.161Z,40.80
2022-11-13T20:05:55.825Z,47.53
2022-11-13T20:08:42.517Z,39.37
2022-11-13T20:11:29.128Z,35.90
2022-11-13T20:14:15.246Z,37.03
2022-11-13T20:17:01.678Z,37.53
2022-11-13T20:19:48.048Z,39.57
2022-11-13T20:22:34.947Z,36.97
2022-11-13T20:25:20.973Z,37.87
2022-11-13T20:28:06.787Z,36.20
2022-11-13T20:30:53.154Z,34.23
2022-11-13T20:33:39.624Z,34.50
2022-11-13T20:36:26.002Z,34.73
2022-11-13T20:39:12.014Z,35.50
2022-11-13T20:41:58.942Z,37.53
2022-11-13T20:44:45.151Z,35.80
2022-11-13T20:47:33.834Z,37.70
2022-11-13T20:50:19.980Z,35.97
2022-11-13T20:53:06.226Z,39.80
2022-11-13T20:55:52.367Z,36.10
2022-11-13T20:58:38.611Z,36.33
2022-11-13T21:01:26.043Z,43.67
2022-11-13T21:04:12.366Z,36.53
2022-11-13T21:06:58.444Z,35.03
2022-11-13T21:09:48.796Z,34.47
2022-11-13T21:12:36.296Z,34.50
2022-11-13T21:15:21.664Z,32.83
2022-11-13T21:18:07.762Z,37.57
2022-11-13T21:20:53.741Z,32.13
2022-11-13T21:23:40.006Z,35.57
2022-11-13T21:26:26.109Z,34.47
2022-11-13T21:29:12.127Z,36.37
2022-11-13T21:31:58.089Z,37.77
2022-11-13T21:34:46.437Z,35.07
2022-11-13T21:37:33.870Z,36.97
2022-11-13T21:40:19.754Z,37.73
2022-11-13T21:43:05.930Z,34.53
2022-11-13T21:45:51.359Z,35.97
2022-11-13T21:48:37.546Z,38.67
2022-11-13T21:51:23.724Z,35.23
2022-11-13T21:54:09.915Z,33.53
2022-11-13T21:56:56.058Z,37.43
2022-11-13T21:59:41.901Z,38.70
2022-11-13T22:02:27.740Z,36.60
2022-11-13T22:05:13.722Z,35.20
2022-11-13T22:07:59.692Z,35.57
2022-11-13T22:10:45.503Z,37.20
2022-11-13T22:13:31.599Z,37.97
2022-11-13T22:16:17.724Z,33.43
2022-11-13T22:19:06.675Z,38.20
2022-11-13T22:21:52.598Z,39.83
2022-11-13T22:24:38.531Z,33.87
2022-11-13T22:27:24.533Z,41.90
2022-11-13T22:30:10.629Z,38.27
2022-11-13T22:32:56.054Z,39.70
2022-11-13T22:35:42.158Z,43.23
2022-11-13T22:38:28.456Z,40.37
2022-11-13T22:41:22.853Z,40.77
2022-11-13T22:44:14.177Z,38.73
2022-11-13T22:47:00.169Z,38.73
2022-11-13T22:49:46.307Z,40.67
2022-11-13T22:52:32.079Z,42.47
2022-11-13T22:55:17.947Z,42.17
2022-11-13T22:58:03.839Z,40.90
2022-11-13T23:00:49.477Z,42.13
2022-11-13T23:03:40.502Z,42.33
2022-11-13T23:06:28.254Z,39.77
2022-11-13T23:09:13.949Z,38.63
2022-11-13T23:11:59.694Z,37.27
2022-11-13T23:14:45.549Z,36.77
2022-11-13T23:17:31.675Z,37.33
2022-11-13T23:20:17.701Z,39.83
2022-11-13T23:23:03.659Z,42.00
2022-11-13T23:25:49.545Z,36.90
2022-11-13T23:28:36.067Z,36.00
2022-11-13T23:31:22.101Z,38.03
2022-11-13T23:34:08.297Z,39.73
2022-11-13T23:36:54.547Z,40.97
2022-11-13T23:39:40.178Z,40.80
2022-11-13T23:42:45.705Z,37.00
2022-11-13T23:45:31.764Z,38.73
2022-11-13T23:48:17.894Z,35.80
2022-11-13T23:51:03.998Z,40.23
2022-11-13T23:53:49.843Z,40.27
2022-11-13T23:56:35.348Z,34.77
2022-11-13T23:59:21.312Z,36.10
